Time;durP1;ratioP1;P1;durP2;ratioP2;P2;SDS_P1;SDS_P2;PMS_P1;PMS_P2;Temp;Humidity;BMP_temperature;BMP_pressure;BME280_temperature;BME280_humidity;BME280_pressure;Samples;Min_cycle;Max_cycle;Signal;HPM_P1;HPM_P2
2021/10/19 00:02:25;;;;;;;;;;;;;;;6.28;76.13;101233.45;2077980;81;32982;-63
2021/10/19 00:05:28;;;;;;;85.22;50.95;;;;;;;6.28;76.24;101230.79;2081252;82;29372;-63
2021/10/19 00:08:33;;;;;;;90.17;52.50;;;;;;;6.27;76.18;101226.37;2080622;83;27801;-62
2021/10/19 00:11:38;;;;;;;91.42;52.98;;;;;;;6.27;76.24;101227.23;2103535;83;29574;-63
2021/10/19 00:14:41;;;;;;;97.45;56.02;;;;;;;6.28;76.23;101231.66;2080980;83;31865;-63
2021/10/19 00:17:48;;;;;;;99.25;53.60;;;;;;;6.30;76.25;101236.94;2051964;84;33041;-63
2021/10/19 00:20:53;;;;;;;84.67;51.50;;;;;;;6.30;76.24;101235.61;2077043;82;29341;-63
2021/10/19 00:23:58;;;;;;;104.15;59.13;;;;;;;6.30;76.23;101240.49;2006431;85;28374;-64
2021/10/19 00:27:05;;;;;;;94.15;54.10;;;;;;;6.31;76.40;101234.70;1997983;85;28783;-63
2021/10/19 00:30:09;;;;;;;91.08;50.55;;;;;;;6.31;76.49;101241.36;2033532;85;31937;-64
2021/10/19 00:33:15;;;;;;;61.45;36.98;;;;;;;6.27;76.57;101221.91;2021379;84;33855;-63
2021/10/19 00:36:17;;;;;;;79.80;48.05;;;;;;;6.33;76.59;101232.90;2021418;84;29969;-64
2021/10/19 00:39:19;;;;;;;81.20;47.13;;;;;;;6.33;76.50;101227.14;2028361;86;27870;-64
2021/10/19 00:42:24;;;;;;;79.82;48.30;;;;;;;6.31;76.49;101216.97;2042837;85;29080;-64
2021/10/19 00:45:30;;;;;;;77.22;45.30;;;;;;;6.31;76.55;101221.40;2023924;84;32142;-62
2021/10/19 00:48:33;;;;;;;76.00;45.58;;;;;;;6.30;76.45;101214.31;2037309;85;32978;-61
2021/10/19 00:51:35;;;;;;;75.42;45.83;;;;;;;6.29;76.34;101209.93;2061861;84;30561;-61
2021/10/19 00:54:37;;;;;;;72.22;44.75;;;;;;;6.26;76.25;101203.33;2012435;86;27951;-62
2021/10/19 00:57:40;;;;;;;72.80;43.55;;;;;;;6.23;76.23;101205.12;2111939;82;29872;-62
2021/10/19 01:00:45;;;;;;;71.00;43.40;;;;;;;6.19;76.15;101198.09;2076304;82;31970;-62
2021/10/19 01:03:50;;;;;;;71.10;43.30;;;;;;;6.17;76.12;101197.70;2108180;82;33100;-63
2021/10/19 01:06:55;;;;;;;74.92;43.83;;;;;;;6.14;76.13;101189.77;2088486;82;29386;-62
2021/10/19 01:10:02;;;;;;;69.75;42.35;;;;;;;6.12;76.16;101188.91;2076662;84;28117;-63
2021/10/19 01:13:07;;;;;;;71.07;43.05;;;;;;;6.08;76.17;101179.64;2081546;83;28815;-62
2021/10/19 01:16:13;;;;;;;71.82;44.60;;;;;;;6.06;76.15;101173.47;2121297;82;31063;-65
2021/10/19 01:19:23;;;;;;;67.92;42.67;;;;;;;6.03;76.15;101173.55;2108116;82;33012;-64
2021/10/19 01:22:28;;;;;;;71.30;42.48;;;;;;;6.01;76.16;101164.71;2080085;82;29365;-63
2021/10/19 01:25:33;;;;;;;68.40;41.33;;;;;;;6.00;76.07;101160.73;2144092;82;27905;-63
2021/10/19 01:28:40;;;;;;;71.30;44.33;;;;;;;5.94;76.00;101159.02;2073639;83;28665;-63
2021/10/19 01:31:53;;;;;;;69.45;43.25;;;;;;;5.92;76.11;101163.05;2100182;82;31098;-63
2021/10/19 01:34:54;;;;;;;66.02;41.20;;;;;;;5.90;76.15;101158.64;2107624;83;32983;-62
2021/10/19 01:38:00;;;;;;;71.37;41.60;;;;;;;5.88;76.25;101148.47;2080948;82;29374;-62
2021/10/19 01:41:05;;;;;;;72.42;42.15;;;;;;;5.87;76.23;101143.62;2078547;83;27940;-62
2021/10/19 01:44:10;;;;;;;;;;;;;;;5.85;76.22;101144.09;2096415;82;28707;-62
2021/10/19 01:47:13;;;;;;;70.55;41.65;;;;;;;5.83;76.24;101147.69;2093834;82;31032;-62
2021/10/19 01:50:19;;;;;;;71.62;42.93;;;;;;;5.78;76.26;101144.65;2096041;82;33019;-62
2021/10/19 01:53:23;;;;;;;69.40;39.92;;;;;;;5.76;76.42;101144.26;2084731;82;29362;-62
2021/10/19 01:56:28;;;;;;;68.95;41.68;;;;;;;5.74;76.41;101138.95;2107429;81;27686;-64
2021/10/19 01:59:33;;;;;;;69.72;42.58;;;;;;;5.74;76.42;101139.41;2135584;81;28670;-63
2021/10/19 02:02:42;;;;;;;76.30;44.58;;;;;;;5.72;76.61;101130.58;2120764;82;31075;-63
2021/10/19 02:05:47;;;;;;;74.67;47.17;;;;;;;5.70;76.71;101126.62;2091123;82;33541;-62
2021/10/19 02:08:53;;;;;;;71.07;42.05;;;;;;;5.70;76.76;101125.73;2076488;83;29387;-63
2021/10/19 02:11:58;;;;;;;77.97;47.05;;;;;;;5.72;76.81;101123.93;2079554;83;27827;-64
2021/10/19 02:15:05;;;;;;;78.83;47.98;;;;;;;5.73;76.89;101127.02;2089545;81;28715;-63
2021/10/19 02:18:10;;;;;;;78.97;46.68;;;;;;;5.71;77.01;101119.05;2098863;82;31033;-63
2021/10/19 02:21:15;;;;;;;;;;;;;;;5.73;77.17;101125.22;2072494;83;33021;-63
2021/10/19 02:24:16;;;;;;;83.33;48.63;;;;;;;5.76;77.22;101125.17;2066448;84;29385;-63
2021/10/19 02:27:18;;;;;;;76.77;46.48;;;;;;;5.79;77.19;101124.27;2056258;85;27854;-63
2021/10/19 02:30:20;;;;;;;78.90;46.00;;;;;;;5.81;77.23;101123.77;2032655;85;29091;-63
2021/10/19 02:33:26;;;;;;;138.65;80.50;;;;;;;5.84;77.19;101118.41;2034899;84;31175;-63
2021/10/19 02:36:30;;;;;;;89.20;52.78;;;;;;;5.87;77.27;101125.01;2051493;84;33789;-63
2021/10/19 02:39:31;;;;;;;79.85;48.55;;;;;;;5.88;77.22;101117.89;2060600;85;30145;-63
2021/10/19 02:42:35;;;;;;;82.45;46.77;;;;;;;5.89;77.09;101124.53;2024218;85;27779;-63
2021/10/19 02:45:41;;;;;;;81.32;47.20;;;;;;;5.90;77.10;101117.41;2019091;85;29563;-63
2021/10/19 02:48:47;;;;;;;86.10;51.23;;;;;;;5.89;77.03;101111.23;2045674;85;31098;-63
2021/10/19 02:54:57;;;;;;;81.32;50.80;;;;;;;5.87;77.08;101122.34;2015540;85;29361;-63
2021/10/19 02:58:03;;;;;;;77.17;47.60;;;;;;;5.87;77.12;101125.47;1997250;86;28000;-64
2021/10/19 03:01:09;;;;;;;95.15;53.70;;;;;;;5.86;77.04;101127.70;2069850;83;28759;-63
2021/10/19 03:04:15;;;;;;;83.58;49.58;;;;;;;5.85;77.12;101128.14;2088810;82;31122;-62
2021/10/19 03:07:20;;;;;;;83.92;47.85;;;;;;;5.85;77.17;101125.95;2074994;82;33059;-62
2021/10/19 03:10:24;;;;;;;85.12;48.63;;;;;;;5.83;77.17;101121.97;2109339;81;30116;-63
2021/10/19 03:13:28;;;;;;;78.25;46.23;;;;;;;5.82;77.29;101119.34;2034277;84;27680;-63
2021/10/19 03:16:32;;;;;;;75.08;43.75;;;;;;;5.84;77.27;101122.39;2041226;86;29502;-63
2021/10/19 03:19:34;;;;;;;78.15;46.20;;;;;;;5.86;77.29;101118.39;2027410;86;31904;-64
2021/10/19 03:22:37;;;;;;;71.00;45.83;;;;;;;5.87;77.27;101119.69;2043430;85;33392;-63
2021/10/19 03:25:43;;;;;;;82.75;50.50;;;;;;;5.90;77.36;101121.41;2020036;85;29663;-66
2021/10/19 03:28:45;;;;;;;87.47;52.48;;;;;;;5.92;77.44;101128.91;2001357;85;28376;-64
2021/10/19 03:31:51;;;;;;;83.82;51.05;;;;;;;5.94;77.53;101121.78;2040248;85;28768;-64
2021/10/19 03:34:58;;;;;;;80.80;49.65;;;;;;;5.96;77.62;101121.31;2030359;85;31321;-63
2021/10/19 03:38:01;;;;;;;79.20;45.52;;;;;;;5.98;77.64;101135.47;2007992;86;33005;-63
2021/10/19 03:41:05;;;;;;;76.67;45.38;;;;;;;5.98;77.73;101135.47;2011198;87;29397;-63
2021/10/19 03:44:06;;;;;;;73.55;43.83;;;;;;;5.98;77.74;101139.45;1987607;86;28323;-63
2021/10/19 03:47:08;;;;;;;64.30;42.30;;;;;;;6.02;77.76;101145.63;2047055;85;29109;-64
2021/10/19 03:50:14;;;;;;;71.85;43.95;;;;;;;6.05;77.80;101133.61;2019686;85;31935;-63
2021/10/19 03:53:20;;;;;;;71.00;43.15;;;;;;;6.06;77.75;101138.89;2023238;86;33030;-63
2021/10/19 03:56:26;;;;;;;66.17;41.70;;;;;;;6.07;77.72;101137.98;2019655;85;29392;-63
2021/10/19 03:59:32;;;;;;;69.42;42.27;;;;;;;6.08;77.72;101138.88;2099872;83;27800;-63
2021/10/19 04:02:38;;;;;;;69.10;44.20;;;;;;;6.12;77.74;101140.59;2126332;82;28729;-63
2021/10/19 04:05:44;;;;;;;76.40;44.00;;;;;;;6.15;77.72;101134.33;2094200;82;31884;-63
2021/10/19 04:11:51;;;;;;;69.62;42.70;;;;;;;6.19;77.76;101154.19;2071348;82;30040;-63
2021/10/19 04:14:56;;;;;;;80.05;45.03;;;;;;;6.21;77.76;101146.17;2149019;81;27790;-63
2021/10/19 04:18:02;;;;;;;72.10;41.40;;;;;;;6.22;77.71;101139.95;2140677;81;28938;-62
2021/10/19 04:21:08;;;;;;;69.53;41.55;;;;;;;6.23;77.76;101130.62;2079758;83;31069;-63
2021/10/19 04:24:13;;;;;;;68.70;41.18;;;;;;;6.26;77.75;101123.50;2093676;82;34025;-63
2021/10/19 04:27:19;;;;;;;74.97;41.25;;;;;;;6.24;77.68;101120.84;2120450;81;29331;-62
2021/10/19 04:30:25;;;;;;;71.22;41.65;;;;;;;6.23;77.72;101127.97;2102000;82;27768;-63
2021/10/19 04:33:29;;;;;;;71.00;40.08;;;;;;;6.26;77.80;101123.50;2077445;82;28711;-63
2021/10/19 04:36:36;;;;;;;68.65;40.20;;;;;;;6.26;77.76;101124.36;2092035;83;31841;-62
2021/10/19 04:39:38;;;;;;;64.77;39.33;;;;;;;6.29;77.85;101128.30;2098596;82;32948;-63
2021/10/19 04:42:44;;;;;;;63.58;37.28;;;;;;;6.32;77.81;101120.70;2092439;81;29712;-63
2021/10/19 04:45:51;;;;;;;64.27;36.63;;;;;;;6.33;77.77;101106.49;2091319;83;27804;-64
2021/10/19 04:48:56;;;;;;;51.18;30.68;;;;;;;6.34;77.75;101107.81;2096025;83;29506;-63
2021/10/19 04:51:59;;;;;;;53.50;30.82;;;;;;;6.36;77.80;101114.42;2099263;83;31047;-61
2021/10/19 04:55:05;;;;;;;45.85;28.83;;;;;;;6.36;77.80;101109.99;2108501;82;33469;-63
2021/10/19 04:58:11;;;;;;;43.78;26.85;;;;;;;6.38;77.78;101107.30;2117909;82;29387;-63
2021/10/19 05:01:13;;;;;;;40.65;27.30;;;;;;;6.38;77.77;101107.30;2135365;82;27744;-62
2021/10/19 05:04:19;;;;;;;42.30;27.93;;;;;;;6.35;77.72;101099.36;2101363;82;29155;-63
2021/10/19 05:07:24;;;;;;;44.18;27.77;;;;;;;6.33;77.74;101091.86;2104511;83;31067;-64
2021/10/19 05:13:35;;;;;;;46.28;27.93;;;;;;;6.33;77.83;101088.76;2076483;84;29537;-64
2021/10/19 05:19:46;;;;;;;40.52;23.98;;;;;;;6.34;77.86;101078.54;2097272;83;29507;-62
2021/10/19 05:22:52;;;;;;;37.78;23.10;;;;;;;6.33;77.98;101070.56;2085977;83;31109;-62
2021/10/19 05:25:55;;;;;;;36.75;22.25;;;;;;;6.31;77.92;101065.29;2103031;83;33009;-63
2021/10/19 05:28:57;;;;;;;34.60;22.30;;;;;;;6.31;78.01;101057.74;2088354;84;30529;-63
2021/10/19 05:32:04;;;;;;;43.35;24.43;;;;;;;6.32;77.96;101059.50;2089542;83;27776;-63
2021/10/19 05:35:07;;;;;;;38.83;23.38;;;;;;;6.33;77.91;101052.83;2090625;84;29528;-63
2021/10/19 05:38:13;;;;;;;39.47;23.07;;;;;;;6.34;77.90;101037.73;2092381;83;30462;-63
2021/10/19 05:41:18;;;;;;;34.50;21.00;;;;;;;6.24;77.97;101015.75;2095100;83;32994;-63
2021/10/19 05:44:23;;;;;;;37.58;21.42;;;;;;;6.38;77.91;101041.62;2097539;83;29784;-63
2021/10/19 05:47:31;;;;;;;37.60;22.77;;;;;;;6.41;77.87;101047.36;2097136;83;27718;-63
2021/10/19 05:50:34;;;;;;;35.03;22.50;;;;;;;6.43;77.84;101047.31;2093363;84;29539;-64
2021/10/19 05:53:40;;;;;;;35.10;21.17;;;;;;;6.44;77.79;101053.06;2091452;84;32255;-63
2021/10/19 05:56:41;;;;;;;37.58;22.40;;;;;;;6.47;77.83;101056.52;2094017;84;33021;-63
2021/10/19 05:59:47;;;;;;;41.92;24.65;;;;;;;6.50;77.85;101064.45;2067447;84;30531;-63
2021/10/19 06:02:52;;;;;;;36.42;22.65;;;;;;;6.54;77.95;101072.81;2046270;85;27825;-63
2021/10/19 06:05:57;;;;;;;36.85;22.30;;;;;;;6.60;78.01;101077.13;2062630;84;29408;-64
2021/10/19 06:08:59;;;;;;;36.20;23.18;;;;;;;6.67;77.96;101084.09;2082350;83;31069;-64
2021/10/19 06:12:05;;;;;;;41.95;23.85;;;;;;;6.74;77.99;101079.95;2093268;83;33421;-64
2021/10/19 06:15:10;;;;;;;36.77;24.45;;;;;;;6.83;77.99;101089.09;2098432;83;29355;-62
2021/10/19 06:18:15;;;;;;;34.45;22.70;;;;;;;6.93;78.06;101085.78;2081431;83;27711;-63
2021/10/19 06:21:21;;;;;;;37.63;24.10;;;;;;;7.03;78.04;101101.97;2095699;83;28738;-63
2021/10/19 06:24:25;;;;;;;37.60;24.85;;;;;;;7.14;78.04;101095.08;2092846;83;30487;-63
2021/10/19 06:27:33;;;;;;;33.37;23.90;;;;;;;7.25;77.96;101092.17;2052651;84;33808;-64
2021/10/19 06:30:38;;;;;;;38.48;23.92;;;;;;;7.39;78.05;101095.83;2092520;83;29387;-63
2021/10/19 06:33:39;;;;;;;;;;;;;;;7.54;78.00;101098.59;2065152;85;27776;-62
2021/10/19 06:36:41;;;;;;;48.90;32.28;;;;;;;7.67;77.92;101088.52;2081969;84;28715;-65
2021/10/19 06:39:44;;;;;;;44.85;29.60;;;;;;;7.84;77.95;101086.73;2052310;84;31723;-65
2021/10/19 06:42:49;;;;;;;43.85;29.55;;;;;;;8.02;77.77;101091.61;2051204;85;33362;-65
2021/10/19 06:45:55;;;;;;;41.63;26.10;;;;;;;8.27;77.82;101106.09;2075442;84;29471;-63
2021/10/19 06:52:06;;;;;;;46.98;24.95;;;;;;;8.81;77.13;101093.91;2094139;83;30601;-64
2021/10/19 06:55:11;;;;;;;43.75;26.60;;;;;;;9.01;76.73;101094.68;2096812;83;31042;-64
2021/10/19 06:58:17;;;;;;;34.80;21.55;;;;;;;9.24;76.80;101083.27;2060177;85;33021;-64
2021/10/19 07:01:22;;;;;;;37.17;21.80;;;;;;;9.53;76.61;101086.80;2051633;85;30154;-64
2021/10/19 07:04:28;;;;;;;35.98;21.65;;;;;;;9.84;76.28;101085.78;2060384;84;27671;-64
2021/10/19 07:07:34;;;;;;;37.83;20.70;;;;;;;10.24;76.24;101089.34;2095066;83;29589;-64
2021/10/19 07:10:40;;;;;;;34.98;18.23;;;;;;;10.77;75.97;101086.52;2080864;83;31043;-64
2021/10/19 07:13:46;;;;;;;28.40;17.37;;;;;;;11.37;74.69;101083.31;2089823;83;33758;-65
2021/10/19 07:16:51;;;;;;;28.10;16.48;;;;;;;11.77;74.02;101082.14;2032559;85;29412;-64
2021/10/19 07:19:56;;;;;;;25.92;17.12;;;;;;;12.15;73.92;101086.83;2108881;83;32998;-65
2021/10/19 07:23:03;;;;;;;26.95;17.42;;;;;;;12.44;73.61;101086.89;2089206;83;28551;-65
2021/10/19 07:26:06;;;;;;;27.67;15.05;;;;;;;12.69;72.95;101096.52;2095108;83;31040;-65
2021/10/19 07:29:13;;;;;;;22.70;13.83;;;;;;;12.87;72.59;101101.99;2056397;84;33005;-64
2021/10/19 07:32:19;;;;;;;23.87;14.43;;;;;;;13.03;72.46;101101.67;2060643;84;28768;-65
2021/10/19 07:35:25;;;;;;;22.15;13.35;;;;;;;13.18;71.76;101092.02;2037195;86;27693;-65
2021/10/19 07:38:31;;;;;;;24.30;15.10;;;;;;;13.28;71.49;101086.18;2081221;84;28628;-65
2021/10/19 07:41:37;;;;;;;26.25;15.70;;;;;;;13.28;71.05;101076.77;2084489;84;31104;-65
2021/10/19 07:44:43;;;;;;;26.50;15.72;;;;;;;13.34;71.25;101076.48;2039343;85;32977;-64
2021/10/19 07:47:49;;;;;;;26.37;15.20;;;;;;;13.38;70.99;101064.63;2092926;83;29364;-66
2021/10/19 07:50:54;;;;;;;21.48;13.03;;;;;;;13.40;70.61;101060.07;2089922;83;27685;-67
2021/10/19 07:53:58;;;;;;;21.60;12.30;;;;;;;13.43;70.48;101057.20;2101732;83;29504;-68
2021/10/19 07:57:01;;;;;;;22.42;11.93;;;;;;;13.45;70.16;101055.80;2092631;83;31028;-68
2021/10/19 08:00:08;;;;;;;16.77;11.97;;;;;;;13.50;70.27;101054.62;2103957;83;33793;-66
2021/10/19 08:03:10;;;;;;;18.20;10.63;;;;;;;13.57;70.15;101055.18;2098432;83;29346;-66
2021/10/19 08:06:17;;;;;;;15.60;9.53;;;;;;;13.68;69.96;101050.11;2095105;83;27720;-66
2021/10/19 08:09:25;;;;;;;14.65;9.90;;;;;;;13.86;69.62;101056.00;2108408;83;29524;-66
2021/10/19 08:12:33;;;;;;;14.15;9.40;;;;;;;14.06;69.08;101057.66;2073162;83;31163;-66
2021/10/19 08:15:38;;;;;;;16.25;8.10;;;;;;;14.26;68.24;101061.53;2098589;83;33019;-66
2021/10/19 08:18:44;;;;;;;13.53;8.35;;;;;;;14.41;68.70;101058.48;2057215;85;29190;-66
2021/10/19 08:21:48;;;;;;;17.10;8.58;;;;;;;14.59;68.41;101048.54;2074365;85;27892;-68
2021/10/19 08:24:54;;;;;;;14.28;7.08;;;;;;;14.77;67.44;101054.37;2037353;86;29473;-67
2021/10/19 08:28:00;;;;;;;14.70;7.50;;;;;;;14.79;67.48;101041.22;2040417;86;31079;-67
2021/10/19 08:31:09;;;;;;;14.83;7.58;;;;;;;14.99;66.78;101050.00;2024145;86;33025;-67
2021/10/19 08:34:13;;;;;;;9.13;6.15;;;;;;;15.03;66.48;101044.36;2052364;85;29339;-67
2021/10/19 08:37:18;;;;;;;11.15;5.40;;;;;;;15.10;66.13;101041.30;2018398;86;27739;-67
2021/10/19 08:40:23;;;;;;;10.28;6.17;;;;;;;15.12;65.23;101046.13;2106873;83;28930;-67
2021/10/19 08:43:29;;;;;;;8.25;5.40;;;;;;;15.21;65.88;101032.12;2099187;83;31013;-69
2021/10/19 08:46:35;;;;;;;9.80;4.92;;;;;;;15.33;65.50;101042.21;2091563;83;33035;-68
2021/10/19 08:49:42;;;;;;;7.47;4.90;;;;;;;15.49;65.41;101037.27;2106377;83;29389;-67
2021/10/19 08:52:48;;;;;;;6.75;4.87;;;;;;;15.69;65.52;101038.78;2101327;83;27827;-66
2021/10/19 08:55:53;;;;;;;8.08;4.65;;;;;;;15.89;64.58;101023.25;2074470;83;29536;-66
2021/10/19 08:59:00;;;;;;;5.20;3.80;;;;;;;16.06;63.83;101023.56;2102089;83;31906;-66
2021/10/19 09:02:06;;;;;;;6.45;4.28;;;;;;;16.18;62.23;101021.48;2105233;83;33360;-66
2021/10/19 09:05:21;;;;;;;8.58;4.25;;;;;;;16.26;62.53;101022.35;2079483;83;30221;-65
2021/10/19 09:08:25;;;;;;;7.85;3.95;;;;;;;16.36;62.32;101022.66;2103069;83;27649;-67
2021/10/19 09:11:41;;;;;;;5.97;3.87;;;;;;;16.46;62.24;101015.69;2069852;84;28698;-66
2021/10/19 09:14:47;;;;;;;6.47;3.52;;;;;;;16.55;62.43;101013.73;2056915;85;31895;-68
2021/10/19 09:17:52;;;;;;;9.13;3.40;;;;;;;16.71;61.06;101008.23;2080573;83;32975;-67
2021/10/19 09:20:57;;;;;;;8.13;4.17;;;;;;;16.71;61.06;101008.23;2069055;85;29367;-66
2021/10/19 09:24:34;;;;;;;4.25;3.58;;;;;;;16.81;61.17;101004.92;2062399;85;27854;-66
2021/10/19 09:27:43;;;;;;;3.77;2.75;;;;;;;16.86;59.96;101009.56;2009283;86;29511;-64
2021/10/19 09:30:53;;;;;;;5.42;2.65;;;;;;;16.93;59.71;100995.14;2045276;85;32029;-66
2021/10/19 09:33:59;;;;;;;5.05;3.40;;;;;;;16.97;58.06;100997.57;2067105;84;32964;-67
2021/10/19 09:37:06;;;;;;;4.78;2.65;;;;;;;16.99;59.02;100997.48;2042827;84;29826;-66
2021/10/19 09:40:12;;;;;;;4.20;2.98;;;;;;;17.04;57.87;101001.24;2071961;84;27776;-66
2021/10/19 09:43:21;;;;;;;6.15;3.40;;;;;;;17.03;56.55;100997.68;2078574;84;29637;-66
2021/10/19 09:46:28;;;;;;;5.97;3.55;;;;;;;17.09;58.04;100995.05;2087878;84;31103;-66
2021/10/19 09:49:32;;;;;;;4.00;2.80;;;;;;;17.14;57.70;100988.83;2096226;84;33023;-66
2021/10/19 09:52:40;;;;;;;4.60;2.80;;;;;;;17.16;56.91;100990.48;2093025;84;30290;-66
2021/10/19 09:55:47;;;;;;;4.00;2.60;;;;;;;17.20;56.93;100988.42;2108596;83;27746;-67
2021/10/19 09:58:53;;;;;;;4.15;2.85;;;;;;;17.27;56.31;100989.77;2107027;83;28706;-66
2021/10/19 10:01:59;;;;;;;5.60;3.17;;;;;;;17.34;56.79;100989.34;2091203;83;31039;-67
2021/10/19 10:05:06;;;;;;;3.90;2.70;;;;;;;17.42;56.45;100985.64;2098313;83;33061;-66
2021/10/19 10:08:24;;;;;;;5.72;2.83;;;;;;;17.47;55.15;100983.47;2106386;83;29442;-68
2021/10/19 10:11:30;;;;;;;3.95;2.90;;;;;;;17.51;55.64;100980.09;2111006;83;27666;-70
2021/10/19 10:14:50;;;;;;;4.28;2.75;;;;;;;17.57;54.85;100969.70;2112632;83;28699;-68
2021/10/19 10:18:00;;;;;;;4.65;3.87;;;;;;;17.61;54.63;100960.86;2110319;83;31105;-67
2021/10/19 10:21:14;;;;;;;6.20;3.00;;;;;;;17.64;54.85;100963.36;2103067;83;33757;-67
2021/10/19 10:24:29;;;;;;;6.53;3.17;;;;;;;17.67;55.09;100965.87;2105887;83;29551;-68
2021/10/19 10:27:32;;;;;;;;;;;;;;;17.67;55.10;100963.16;2113547;83;27726;-68
2021/10/19 10:30:39;;;;;;;7.12;3.58;;;;;;;17.67;54.05;100946.02;2090505;83;28700;-69
2021/10/19 10:33:47;;;;;;;4.78;2.85;;;;;;;17.62;53.99;100959.89;2059501;85;31840;-70
2021/10/19 10:36:52;;;;;;;7.15;3.00;;;;;;;17.54;53.56;100963.63;2065506;84;33814;-68
2021/10/19 10:39:58;;;;;;;4.75;3.60;;;;;;;17.46;53.71;100950.11;2037803;84;29436;-69
2021/10/19 10:43:22;;;;;;;4.90;3.00;;;;;;;17.46;53.76;100944.69;2103720;83;27840;-72
2021/10/19 10:46:28;;;;;;;8.15;3.98;;;;;;;17.48;54.05;100945.92;2098201;83;29469;-69
2021/10/19 10:49:29;;;;;;;5.83;3.50;;;;;;;17.43;53.31;100940.83;2083350;83;31080;-69
2021/10/19 10:52:36;;;;;;;5.95;3.95;;;;;;;17.43;53.45;100934.06;2078201;84;32995;-70
2021/10/19 10:55:47;;;;;;;6.10;3.83;;;;;;;17.44;53.57;100918.69;2104466;83;29355;-68
2021/10/19 10:58:53;;;;;;;3.92;3.17;;;;;;;17.45;53.37;100907.73;2113078;83;27650;-68
2021/10/19 11:02:08;;;;;;;4.67;3.20;;;;;;;17.45;53.49;100903.67;2088435;83;28659;-67
2021/10/19 11:05:13;;;;;;;;;;;;;;;17.46;52.73;100895.94;2086697;84;30469;-70
2021/10/19 11:08:24;;;;;;;5.12;3.25;;;;;;;17.42;52.10;100893.05;2025631;86;33052;-71
2021/10/19 11:11:39;;;;;;;3.42;3.00;;;;;;;17.36;53.16;100892.61;2089133;84;30114;-71
2021/10/19 11:14:41;;;;;;;10.00;3.90;;;;;;;17.34;52.85;100902.67;2098288;84;27896;-70
2021/10/19 11:17:50;;;;;;;11.73;3.92;;;;;;;17.28;52.80;100899.43;2093229;84;28718;-73
2021/10/19 11:20:56;;;;;;;4.60;3.20;;;;;;;17.24;52.69;100894.31;2087315;84;31039;-70
2021/10/19 11:23:59;;;;;;;4.58;3.17;;;;;;;17.21;51.76;100889.13;2085347;84;33210;-70
2021/10/19 11:27:07;;;;;;;6.72;2.50;;;;;;;17.16;52.68;100882.17;2096190;83;29374;-70
2021/10/19 11:30:10;;;;;;;5.87;3.27;;;;;;;17.11;51.78;100881.61;2096136;83;27745;-70
2021/10/19 11:33:16;;;;;;;3.77;2.83;;;;;;;17.05;51.93;100879.81;2069183;84;28689;-70
2021/10/19 11:36:22;;;;;;;4.22;3.20;;;;;;;17.00;51.62;100876.92;2048915;85;31159;-70
2021/10/19 11:39:28;;;;;;;4.78;3.40;;;;;;;16.95;51.76;100864.20;2058859;84;33643;-70
2021/10/19 11:42:45;;;;;;;3.75;3.02;;;;;;;16.93;52.04;100870.17;2090730;83;29567;-70
2021/10/19 11:45:51;;;;;;;4.50;3.40;;;;;;;16.91;51.84;100857.69;2101180;83;27733;-80
2021/10/19 11:48:57;;;;;;;7.67;3.58;;;;;;;16.86;51.37;100866.12;2088334;83;29316;-69
2021/10/19 11:52:01;;;;;;;5.85;3.60;;;;;;;16.87;52.44;100863.81;2025867;86;31080;-69
2021/10/19 11:55:08;;;;;;;10.63;3.87;;;;;;;16.91;52.31;100852.28;2095508;83;32984;-69
2021/10/19 11:58:14;;;;;;;8.50;4.55;;;;;;;16.91;51.95;100843.69;2094669;83;29434;-69
2021/10/19 12:01:23;;;;;;;9.53;4.10;;;;;;;16.93;52.00;100851.70;2091624;84;27707;-69
2021/10/19 12:04:32;;;;;;;8.35;4.20;;;;;;;16.96;52.19;100844.77;2053810;84;28859;-69
2021/10/19 12:07:35;;;;;;;8.13;3.80;;;;;;;16.99;51.98;100839.14;2060839;84;31050;-70
2021/10/19 12:10:44;;;;;;;8.33;4.00;;;;;;;16.99;51.69;100829.17;2088432;83;33681;-69
2021/10/19 12:13:59;;;;;;;7.05;4.00;;;;;;;16.99;51.96;100820.20;2100337;83;29348;-69
2021/10/19 12:17:04;;;;;;;;;;;;;;;17.01;52.36;100816.91;2099437;83;27706;-68
2021/10/19 12:20:12;;;;;;;6.87;3.62;;;;;;;17.02;51.88;100815.94;2097578;83;28697;-69
2021/10/19 12:23:19;;;;;;;6.90;3.25;;;;;;;17.01;52.22;100816.91;2102719;83;31835;-70
2021/10/19 12:26:28;;;;;;;7.10;4.10;;;;;;;17.00;52.12;100819.23;2102894;83;33038;-68
2021/10/19 12:29:34;;;;;;;5.05;3.50;;;;;;;16.88;51.93;100794.33;2094371;83;29325;-69
2021/10/19 12:32:39;;;;;;;6.35;3.90;;;;;;;17.00;51.74;100807.05;2105639;84;27735;-70
2021/10/19 12:35:51;;;;;;;6.85;3.83;;;;;;;16.98;51.86;100803.08;2099254;83;29712;-69
2021/10/19 12:38:59;;;;;;;7.58;4.55;;;;;;;16.98;51.29;100800.87;2093907;83;31670;-69
2021/10/19 12:42:04;;;;;;;8.15;3.85;;;;;;;16.96;51.77;100787.92;2055181;85;32895;-68
2021/10/19 12:45:10;;;;;;;3.90;3.33;;;;;;;16.96;51.84;100786.57;2060304;85;30233;-63
2021/10/19 12:48:15;;;;;;;5.22;3.50;;;;;;;16.95;51.71;100775.36;2065905;85;27725;-65
2021/10/19 12:51:22;;;;;;;7.42;3.70;;;;;;;16.95;51.93;100768.59;2082949;84;28703;-65
2021/10/19 12:54:28;;;;;;;9.63;3.65;;;;;;;16.95;51.95;100761.83;2094409;84;31884;-76
2021/10/19 12:57:34;;;;;;;6.92;3.85;;;;;;;16.94;51.92;100756.88;2067061;85;33020;-80
2021/10/19 13:00:38;;;;;;;9.65;3.75;;;;;;;16.93;51.64;100748.38;1987750;87;29367;-77
2021/10/19 13:03:43;;;;;;;6.90;3.90;;;;;;;16.95;51.58;100753.23;1999722;87;28432;-70
2021/10/19 13:06:49;;;;;;;5.97;3.40;;;;;;;16.94;51.94;100748.77;2017063;87;28137;-75
2021/10/19 13:09:51;;;;;;;7.10;3.70;;;;;;;16.95;51.93;100746.94;1996800;86;31093;-70
2021/10/19 13:12:57;;;;;;;5.53;3.42;;;;;;;16.98;51.90;100747.59;2022730;86;33177;-77
2021/10/19 13:16:03;;;;;;;7.25;3.67;;;;;;;16.98;51.80;100747.59;2056029;85;29393;-74
2021/10/19 13:19:09;;;;;;;5.40;2.92;;;;;;;17.00;51.96;100750.20;2023915;86;27880;-82
2021/10/19 13:22:15;;;;;;;12.88;4.12;;;;;;;17.02;51.37;100741.50;2048655;85;29556;-74
2021/10/19 13:25:21;;;;;;;4.37;3.50;;;;;;;17.03;51.53;100728.34;2010896;86;31099;-68
2021/10/19 13:28:30;;;;;;;5.60;3.40;;;;;;;17.04;51.59;100726.48;2029187;86;33759;-71
2021/10/19 13:31:32;;;;;;;4.42;3.02;;;;;;;17.06;51.73;100733.52;2024185;86;30097;-72
2021/10/19 13:34:34;;;;;;;9.03;3.55;;;;;;;17.10;51.78;100739.60;2019843;87;27850;-73
2021/10/19 13:37:43;;;;;;;6.50;3.50;;;;;;;17.12;51.95;100737.66;2069042;83;28707;-77
2021/10/19 13:40:46;;;;;;;7.28;4.10;;;;;;;17.12;51.94;100739.02;2065754;84;31073;-72
2021/10/19 13:43:48;;;;;;;4.70;3.58;;;;;;;17.13;52.24;100737.54;2070284;84;33157;-67
2021/10/19 13:46:54;;;;;;;5.60;3.65;;;;;;;17.13;52.16;100738.01;2059119;84;29756;-72
2021/10/19 13:49:56;;;;;;;6.70;3.02;;;;;;;17.12;51.88;100735.80;2080480;83;28295;-69
2021/10/19 13:52:58;;;;;;;4.75;3.35;;;;;;;17.11;52.01;100735.42;2087940;82;28654;-62
2021/10/19 13:56:00;;;;;;;7.03;3.80;;;;;;;17.11;52.26;100731.86;2090941;83;32383;-62
2021/10/19 13:59:06;;;;;;;7.72;3.47;;;;;;;17.09;52.20;100730.59;2086616;82;33162;-61
2021/10/19 14:02:09;;;;;;;6.37;3.70;;;;;;;17.09;52.22;100731.95;2108256;82;29735;-61
2021/10/19 14:05:12;;;;;;;8.45;4.22;;;;;;;17.08;52.09;100734.28;2087108;83;27703;-61
2021/10/19 14:08:14;;;;;;;6.42;3.67;;;;;;;17.06;52.25;100730.81;2106801;83;29589;-61
2021/10/19 14:11:16;;;;;;;10.08;4.20;;;;;;;17.05;52.18;100727.72;2076623;83;32285;-63
2021/10/19 14:14:19;;;;;;;8.08;4.17;;;;;;;17.02;52.41;100723.91;2114773;82;33795;-61
2021/10/19 14:17:26;;;;;;;8.63;4.12;;;;;;;17.01;52.54;100720.81;2095832;83;29363;-66
2021/10/19 15:53:54;;;;;;;15.40;7.85;;;;;;;13.52;57.68;100694.70;2359045;74;32296;-68
2021/10/19 15:57:01;;;;;;;15.18;7.90;;;;;;;13.38;57.76;100698.13;2310935;75;27660;-66
2021/10/19 16:00:00;;;;;;;13.55;7.87;;;;;;;13.28;58.00;100690.17;2301895;75;28689;-70
2021/10/19 16:03:03;;;;;;;20.55;10.13;;;;;;;13.20;58.21;100686.56;2301540;76;31397;-67
2021/10/19 16:06:05;;;;;;;17.62;8.78;;;;;;;13.15;58.14;100683.73;2304321;76;34017;-69
2021/10/19 16:09:10;;;;;;;21.05;8.45;;;;;;;13.10;58.13;100686.64;2283946;75;29536;-67